sensor_id;sensor_type;location;lat;lon;timestamp;temperature;humidity
20422;DHT22;10370;53.102;18.034;2022-11-20T00:11:31;-0.80;99.90
20422;DHT22;10370;53.102;18.034;2022-11-20T00:17:34;-0.80;99.90
20422;DHT22;10370;53.102;18.034;2022-11-20T01:19:00;-0.70;99.90
20422;DHT22;10370;53.102;18.034;2022-11-20T01:25:08;-0.70;99.90
20422;DHT22;10370;53.102;18.034;2022-11-20T01:36:24;-0.70;99.90
20422;DHT22;10370;53.102;18.034;2022-11-20T01:43:20;-0.80;99.90
20422;DHT22;10370;53.102;18.034;2022-11-20T01:49:37;-0.70;99.90
20422;DHT22;10370;53.102;18.034;2022-11-20T01:55:52;-0.70;99.90
20422;DHT22;10370;53.102;18.034;2022-11-20T02:01:58;-0.70;99.90
20422;DHT22;10370;53.102;18.034;2022-11-20T02:12:40;-0.70;99.90
20422;DHT22;10370;53.102;18.034;2022-11-20T02:18:21;-0.70;99.90
20422;DHT22;10370;53.102;18.034;2022-11-20T02:24:07;-0.70;99.90
20422;DHT22;10370;53.102;18.034;2022-11-20T02:40:32;-0.70;99.90
20422;DHT22;10370;53.102;18.034;2022-11-20T02:46:00;-0.70;99.90
20422;DHT22;10370;53.102;18.034;2022-11-20T03:20:38;-0.80;99.90
20422;DHT22;10370;53.102;18.034;2022-11-20T03:37:46;-0.80;99.90
20422;DHT22;10370;53.102;18.034;2022-11-20T04:38:43;-0.80;99.90
20422;DHT22;10370;53.102;18.034;2022-11-20T05:20:54;-0.80;99.90
20422;DHT22;10370;53.102;18.034;2022-11-20T05:33:00;-0.90;99.90
20422;DHT22;10370;53.102;18.034;2022-11-20T05:52:48;-0.90;99.90
20422;DHT22;10370;53.102;18.034;2022-11-20T06:10:32;-0.90;99.90
20422;DHT22;10370;53.102;18.034;2022-11-20T06:27:08;-1.00;99.90
20422;DHT22;10370;53.102;18.034;2022-11-20T06:32:33;-1.00;99.90
20422;DHT22;10370;53.102;18.034;2022-11-20T06:37:58;-1.00;99.90
20422;DHT22;10370;53.102;18.034;2022-11-20T06:43:25;-0.90;99.90
20422;DHT22;10370;53.102;18.034;2022-11-20T06:48:49;-0.90;99.90
20422;DHT22;10370;53.102;18.034;2022-11-20T06:54:38;-0.90;99.90
20422;DHT22;10370;53.102;18.034;2022-11-20T07:00:24;-0.90;99.90
20422;DHT22;10370;53.102;18.034;2022-11-20T07:06:03;-0.80;99.90
20422;DHT22;10370;53.102;18.034;2022-11-20T07:11:49;-0.80;99.90
20422;DHT22;10370;53.102;18.034;2022-11-20T07:17:39;-0.80;99.90
20422;DHT22;10370;53.102;18.034;2022-11-20T07:23:23;-0.80;99.90
20422;DHT22;10370;53.102;18.034;2022-11-20T07:29:24;-0.70;99.90
20422;DHT22;10370;53.102;18.034;2022-11-20T07:35:30;-0.70;99.90
20422;DHT22;10370;53.102;18.034;2022-11-20T08:00:20;-0.50;99.90
20422;DHT22;10370;53.102;18.034;2022-11-20T08:05:54;-0.50;99.90
20422;DHT22;10370;53.102;18.034;2022-11-20T08:11:42;-0.40;99.90
20422;DHT22;10370;53.102;18.034;2022-11-20T08:31:00;-0.30;99.90
20422;DHT22;10370;53.102;18.034;2022-11-20T09:01:19;0.00;99.90
20422;DHT22;10370;53.102;18.034;2022-11-20T09:06:40;0.00;99.90
20422;DHT22;10370;53.102;18.034;2022-11-20T09:12:03;0.00;99.90
20422;DHT22;10370;53.102;18.034;2022-11-20T09:29:10;0.10;99.90
20422;DHT22;10370;53.102;18.034;2022-11-20T09:34:31;0.10;99.90
20422;DHT22;10370;53.102;18.034;2022-11-20T09:46:07;0.20;99.90
20422;DHT22;10370;53.102;18.034;2022-11-20T09:52:41;0.20;99.90
20422;DHT22;10370;53.102;18.034;2022-11-20T10:48:57;0.20;99.90
20422;DHT22;10370;53.102;18.034;2022-11-20T10:54:39;0.30;99.90
20422;DHT22;10370;53.102;18.034;2022-11-20T11:00:09;0.30;99.90
20422;DHT22;10370;53.102;18.034;2022-11-20T11:05:39;0.40;99.90
20422;DHT22;10370;53.102;18.034;2022-11-20T11:11:30;0.40;99.90
20422;DHT22;10370;53.102;18.034;2022-11-20T11:16:56;0.50;99.90
20422;DHT22;10370;53.102;18.034;2022-11-20T11:22:18;0.30;99.90
20422;DHT22;10370;53.102;18.034;2022-11-20T11:27:49;0.30;99.90
20422;DHT22;10370;53.102;18.034;2022-11-20T11:33:28;0.20;99.90
20422;DHT22;10370;53.102;18.034;2022-11-20T11:38:51;0.20;99.90
20422;DHT22;10370;53.102;18.034;2022-11-20T11:44:20;0.10;99.90
20422;DHT22;10370;53.102;18.034;2022-11-20T12:06:59;0.40;99.90
20422;DHT22;10370;53.102;18.034;2022-11-20T12:12:42;0.40;99.90
20422;DHT22;10370;53.102;18.034;2022-11-20T12:18:10;0.40;99.90
20422;DHT22;10370;53.102;18.034;2022-11-20T12:29:47;0.50;99.90
20422;DHT22;10370;53.102;18.034;2022-11-20T12:35:44;0.50;99.90
20422;DHT22;10370;53.102;18.034;2022-11-20T12:46:47;0.60;99.90
20422;DHT22;10370;53.102;18.034;2022-11-20T12:52:25;0.60;99.90
20422;DHT22;10370;53.102;18.034;2022-11-20T13:03:27;0.70;99.90
20422;DHT22;10370;53.102;18.034;2022-11-20T13:08:55;0.70;99.90
20422;DHT22;10370;53.102;18.034;2022-11-20T13:31:41;0.70;99.90
20422;DHT22;10370;53.102;18.034;2022-11-20T13:37:25;0.60;99.90
20422;DHT22;10370;53.102;18.034;2022-11-20T13:43:18;0.60;99.90
20422;DHT22;10370;53.102;18.034;2022-11-20T14:09:31;0.40;99.90
20422;DHT22;10370;53.102;18.034;2022-11-20T14:15:40;0.40;99.90
20422;DHT22;10370;53.102;18.034;2022-11-20T14:28:10;0.30;99.90
20422;DHT22;10370;53.102;18.034;2022-11-20T14:34:10;0.20;99.90
20422;DHT22;10370;53.102;18.034;2022-11-20T14:39:35;0.20;99.90
20422;DHT22;10370;53.102;18.034;2022-11-20T14:44:58;0.20;99.90
20422;DHT22;10370;53.102;18.034;2022-11-20T14:50:44;0.10;99.90
20422;DHT22;10370;53.102;18.034;2022-11-20T15:02:05;0.10;99.90
20422;DHT22;10370;53.102;18.034;2022-11-20T15:07:31;0.00;99.90
20422;DHT22;10370;53.102;18.034;2022-11-20T15:18:16;-0.10;99.90
20422;DHT22;10370;53.102;18.034;2022-11-20T15:23:38;-0.10;99.90
20422;DHT22;10370;53.102;18.034;2022-11-20T15:28:59;-0.10;99.90
20422;DHT22;10370;53.102;18.034;2022-11-20T15:34:20;-0.20;99.90
20422;DHT22;10370;53.102;18.034;2022-11-20T15:45:19;-0.20;99.90
20422;DHT22;10370;53.102;18.034;2022-11-20T15:51:07;-0.20;99.90
20422;DHT22;10370;53.102;18.034;2022-11-20T15:56:32;-0.20;99.90
20422;DHT22;10370;53.102;18.034;2022-11-20T16:01:54;-0.30;99.90
20422;DHT22;10370;53.102;18.034;2022-11-20T16:07:16;-0.30;99.90
20422;DHT22;10370;53.102;18.034;2022-11-20T16:17:58;-0.30;99.90
20422;DHT22;10370;53.102;18.034;2022-11-20T16:23:20;-0.30;99.90
20422;DHT22;10370;53.102;18.034;2022-11-20T16:28:42;-0.30;99.90
20422;DHT22;10370;53.102;18.034;2022-11-20T16:34:06;-0.30;99.90
20422;DHT22;10370;53.102;18.034;2022-11-20T16:39:31;-0.30;99.90
20422;DHT22;10370;53.102;18.034;2022-11-20T16:44:52;-0.30;99.90
20422;DHT22;10370;53.102;18.034;2022-11-20T16:50:13;-0.30;99.90
20422;DHT22;10370;53.102;18.034;2022-11-20T16:55:37;-0.30;99.90
20422;DHT22;10370;53.102;18.034;2022-11-20T17:06:22;-0.30;99.90
20422;DHT22;10370;53.102;18.034;2022-11-20T17:11:59;-0.30;99.90
20422;DHT22;10370;53.102;18.034;2022-11-20T17:17:34;-0.30;99.90
20422;DHT22;10370;53.102;18.034;2022-11-20T17:23:09;-0.30;99.90
20422;DHT22;10370;53.102;18.034;2022-11-20T17:48:11;-0.40;99.90
20422;DHT22;10370;53.102;18.034;2022-11-20T17:59:25;-0.40;99.90
20422;DHT22;10370;53.102;18.034;2022-11-20T18:22:39;-0.40;99.90
20422;DHT22;10370;53.102;18.034;2022-11-20T18:33:41;-0.40;99.90
20422;DHT22;10370;53.102;18.034;2022-11-20T18:39:03;-0.50;99.90
20422;DHT22;10370;53.102;18.034;2022-11-20T18:44:31;-0.50;99.90
20422;DHT22;10370;53.102;18.034;2022-11-20T18:55:32;-0.50;99.90
20422;DHT22;10370;53.102;18.034;2022-11-20T19:00:53;-0.60;99.90
20422;DHT22;10370;53.102;18.034;2022-11-20T19:06:17;-0.50;99.90
20422;DHT22;10370;53.102;18.034;2022-11-20T19:11:46;-0.50;99.90
20422;DHT22;10370;53.102;18.034;2022-11-20T19:17:08;-0.50;99.90
20422;DHT22;10370;53.102;18.034;2022-11-20T19:22:34;-0.50;99.90
20422;DHT22;10370;53.102;18.034;2022-11-20T19:28:04;-0.50;99.90
20422;DHT22;10370;53.102;18.034;2022-11-20T19:33:25;-0.50;99.90
20422;DHT22;10370;53.102;18.034;2022-11-20T19:38:48;-0.40;99.90
20422;DHT22;10370;53.102;18.034;2022-11-20T19:44:12;-0.40;99.90
20422;DHT22;10370;53.102;18.034;2022-11-20T19:49:33;-0.40;99.90
20422;DHT22;10370;53.102;18.034;2022-11-20T20:00:15;-0.40;99.90
20422;DHT22;10370;53.102;18.034;2022-11-20T20:11:18;-0.30;99.90
20422;DHT22;10370;53.102;18.034;2022-11-20T20:16:42;-0.30;99.90
20422;DHT22;10370;53.102;18.034;2022-11-20T20:22:02;-0.20;99.90
20422;DHT22;10370;53.102;18.034;2022-11-20T20:27:24;-0.20;99.90
20422;DHT22;10370;53.102;18.034;2022-11-20T20:32:47;-0.20;99.90
20422;DHT22;10370;53.102;18.034;2022-11-20T20:38:14;-0.20;99.90
20422;DHT22;10370;53.102;18.034;2022-11-20T20:43:42;-0.20;99.90
20422;DHT22;10370;53.102;18.034;2022-11-20T20:49:22;-0.20;99.90
20422;DHT22;10370;53.102;18.034;2022-11-20T20:54:43;-0.20;99.90
20422;DHT22;10370;53.102;18.034;2022-11-20T21:00:06;-0.30;99.90
20422;DHT22;10370;53.102;18.034;2022-11-20T21:05:27;-0.30;99.90
20422;DHT22;10370;53.102;18.034;2022-11-20T21:11:00;-0.40;99.90
20422;DHT22;10370;53.102;18.034;2022-11-20T21:16:25;-0.40;99.90
20422;DHT22;10370;53.102;18.034;2022-11-20T21:21:46;-0.40;99.90
20422;DHT22;10370;53.102;18.034;2022-11-20T21:27:19;-0.40;99.90
20422;DHT22;10370;53.102;18.034;2022-11-20T21:32:40;-0.50;99.90
20422;DHT22;10370;53.102;18.034;2022-11-20T21:38:02;-0.60;99.90
20422;DHT22;10370;53.102;18.034;2022-11-20T21:43:23;-0.80;99.90
20422;DHT22;10370;53.102;18.034;2022-11-20T21:48:44;-0.80;99.90
20422;DHT22;10370;53.102;18.034;2022-11-20T21:54:06;-0.80;99.90
20422;DHT22;10370;53.102;18.034;2022-11-20T21:59:27;-0.80;99.90
20422;DHT22;10370;53.102;18.034;2022-11-20T22:04:48;-0.90;99.90
20422;DHT22;10370;53.102;18.034;2022-11-20T22:10:11;-1.00;99.90
20422;DHT22;10370;53.102;18.034;2022-11-20T22:15:37;-1.20;99.90
20422;DHT22;10370;53.102;18.034;2022-11-20T22:21:23;-1.40;99.90
20422;DHT22;10370;53.102;18.034;2022-11-20T22:26:44;-1.60;99.90
20422;DHT22;10370;53.102;18.034;2022-11-20T22:32:12;-1.80;99.90
20422;DHT22;10370;53.102;18.034;2022-11-20T22:37:32;-1.80;99.90
20422;DHT22;10370;53.102;18.034;2022-11-20T22:42:53;-1.90;99.90
20422;DHT22;10370;53.102;18.034;2022-11-20T22:48:14;-2.00;99.90
20422;DHT22;10370;53.102;18.034;2022-11-20T22:53:36;-2.00;99.90
20422;DHT22;10370;53.102;18.034;2022-11-20T22:58:57;-2.20;99.90
20422;DHT22;10370;53.102;18.034;2022-11-20T23:04:18;-2.20;99.90
20422;DHT22;10370;53.102;18.034;2022-11-20T23:09:39;-2.30;99.90
20422;DHT22;10370;53.102;18.034;2022-11-20T23:15:00;-2.40;99.90
20422;DHT22;10370;53.102;18.034;2022-11-20T23:20:23;-2.50;99.90
20422;DHT22;10370;53.102;18.034;2022-11-20T23:25:45;-2.60;99.90
20422;DHT22;10370;53.102;18.034;2022-11-20T23:31:10;-2.80;99.90
20422;DHT22;10370;53.102;18.034;2022-11-20T23:36:31;-3.00;99.90
20422;DHT22;10370;53.102;18.034;2022-11-20T23:41:53;-3.10;99.90
20422;DHT22;10370;53.102;18.034;2022-11-20T23:47:14;-3.20;99.90
20422;DHT22;10370;53.102;18.034;2022-11-20T23:52:35;-3.30;99.90
20422;DHT22;10370;53.102;18.034;2022-11-20T23:57:56;-3.30;99.90
